sensor_id;sensor_type;location;lat;lon;timestamp;temperature;humidity
2489;DHT22;1255;48.716;9.124;2022-09-12T00:01:02;12.60;99.90
2489;DHT22;1255;48.716;9.124;2022-09-12T00:03:29;12.60;99.90
2489;DHT22;1255;48.716;9.124;2022-09-12T00:05:56;12.60;99.90
2489;DHT22;1255;48.716;9.124;2022-09-12T00:08:22;12.60;99.90
2489;DHT22;1255;48.716;9.124;2022-09-12T00:10:49;12.50;99.90
2489;DHT22;1255;48.716;9.124;2022-09-12T00:13:17;12.50;99.90
2489;DHT22;1255;48.716;9.124;2022-09-12T00:15:44;12.50;99.90
2489;DHT22;1255;48.716;9.124;2022-09-12T00:18:14;12.50;99.90
2489;DHT22;1255;48.716;9.124;2022-09-12T00:20:41;12.40;99.90
2489;DHT22;1255;48.716;9.124;2022-09-12T00:23:08;12.40;99.90
2489;DHT22;1255;48.716;9.124;2022-09-12T00:28:03;12.40;99.90
2489;DHT22;1255;48.716;9.124;2022-09-12T00:30:31;12.40;99.90
2489;DHT22;1255;48.716;9.124;2022-09-12T00:32:58;12.30;99.90
2489;DHT22;1255;48.716;9.124;2022-09-12T00:35:24;12.30;99.90
2489;DHT22;1255;48.716;9.124;2022-09-12T00:37:51;12.30;99.90
2489;DHT22;1255;48.716;9.124;2022-09-12T00:40:18;12.20;99.90
2489;DHT22;1255;48.716;9.124;2022-09-12T00:42:44;12.20;99.90
2489;DHT22;1255;48.716;9.124;2022-09-12T00:45:19;12.20;99.90
2489;DHT22;1255;48.716;9.124;2022-09-12T00:47:49;12.20;99.90
2489;DHT22;1255;48.716;9.124;2022-09-12T00:50:17;12.20;99.90
2489;DHT22;1255;48.716;9.124;2022-09-12T00:52:45;12.20;99.90
2489;DHT22;1255;48.716;9.124;2022-09-12T00:55:15;12.20;99.90
2489;DHT22;1255;48.716;9.124;2022-09-12T00:57:48;12.20;99.90
2489;DHT22;1255;48.716;9.124;2022-09-12T01:00:17;12.20;99.90
2489;DHT22;1255;48.716;9.124;2022-09-12T01:02:48;12.10;99.90
2489;DHT22;1255;48.716;9.124;2022-09-12T01:05:17;12.10;99.90
2489;DHT22;1255;48.716;9.124;2022-09-12T01:07:44;12.10;99.90
2489;DHT22;1255;48.716;9.124;2022-09-12T01:10:13;12.00;99.90
2489;DHT22;1255;48.716;9.124;2022-09-12T01:12:41;12.00;99.90
2489;DHT22;1255;48.716;9.124;2022-09-12T01:15:09;12.00;99.90
2489;DHT22;1255;48.716;9.124;2022-09-12T01:17:57;12.00;99.90
2489;DHT22;1255;48.716;9.124;2022-09-12T01:20:50;11.90;99.90
2489;DHT22;1255;48.716;9.124;2022-09-12T01:23:44;12.00;99.90
2489;DHT22;1255;48.716;9.124;2022-09-12T01:26:50;11.90;99.90
2489;DHT22;1255;48.716;9.124;2022-09-12T01:29:39;11.90;99.90
2489;DHT22;1255;48.716;9.124;2022-09-12T01:32:16;11.80;99.90
2489;DHT22;1255;48.716;9.124;2022-09-12T01:34:46;11.80;99.90
2489;DHT22;1255;48.716;9.124;2022-09-12T01:37:21;11.80;99.90
2489;DHT22;1255;48.716;9.124;2022-09-12T01:39:57;11.80;99.90
2489;DHT22;1255;48.716;9.124;2022-09-12T01:42:31;11.70;99.90
2489;DHT22;1255;48.716;9.124;2022-09-12T01:45:04;11.70;99.90
2489;DHT22;1255;48.716;9.124;2022-09-12T01:47:39;11.70;99.90
2489;DHT22;1255;48.716;9.124;2022-09-12T01:50:08;11.70;99.90
2489;DHT22;1255;48.716;9.124;2022-09-12T01:52:41;11.70;99.90
2489;DHT22;1255;48.716;9.124;2022-09-12T01:55:12;11.60;99.90
2489;DHT22;1255;48.716;9.124;2022-09-12T01:57:45;11.60;99.90
2489;DHT22;1255;48.716;9.124;2022-09-12T02:00:14;11.60;99.90
2489;DHT22;1255;48.716;9.124;2022-09-12T02:02:45;11.60;99.90
2489;DHT22;1255;48.716;9.124;2022-09-12T02:05:18;11.50;99.90
2489;DHT22;1255;48.716;9.124;2022-09-12T02:07:48;11.50;99.90
2489;DHT22;1255;48.716;9.124;2022-09-12T02:10:19;11.50;99.90
2489;DHT22;1255;48.716;9.124;2022-09-12T02:12:51;11.50;99.90
2489;DHT22;1255;48.716;9.124;2022-09-12T02:15:20;11.40;99.90
2489;DHT22;1255;48.716;9.124;2022-09-12T02:17:50;11.40;99.90
2489;DHT22;1255;48.716;9.124;2022-09-12T02:20:21;11.40;99.90
2489;DHT22;1255;48.716;9.124;2022-09-12T02:22:50;11.40;99.90
2489;DHT22;1255;48.716;9.124;2022-09-12T02:25:19;11.40;99.90
2489;DHT22;1255;48.716;9.124;2022-09-12T02:27:48;11.40;99.90
2489;DHT22;1255;48.716;9.124;2022-09-12T02:30:16;11.40;99.90
2489;DHT22;1255;48.716;9.124;2022-09-12T02:32:52;11.40;99.90
2489;DHT22;1255;48.716;9.124;2022-09-12T02:35:31;11.30;99.90
2489;DHT22;1255;48.716;9.124;2022-09-12T02:38:03;11.30;99.90
2489;DHT22;1255;48.716;9.124;2022-09-12T02:40:32;11.30;99.90
2489;DHT22;1255;48.716;9.124;2022-09-12T02:42:59;11.30;99.90
2489;DHT22;1255;48.716;9.124;2022-09-12T02:45:27;11.30;99.90
2489;DHT22;1255;48.716;9.124;2022-09-12T02:47:59;11.30;99.90
2489;DHT22;1255;48.716;9.124;2022-09-12T02:50:28;11.20;99.90
2489;DHT22;1255;48.716;9.124;2022-09-12T02:52:55;11.20;99.90
2489;DHT22;1255;48.716;9.124;2022-09-12T02:55:25;11.20;99.90
2489;DHT22;1255;48.716;9.124;2022-09-12T02:57:51;11.20;99.90
2489;DHT22;1255;48.716;9.124;2022-09-12T03:00:18;11.20;99.90
2489;DHT22;1255;48.716;9.124;2022-09-12T03:03:00;11.20;99.90
2489;DHT22;1255;48.716;9.124;2022-09-12T03:05:30;11.20;99.90
2489;DHT22;1255;48.716;9.124;2022-09-12T03:08:18;11.20;99.90
2489;DHT22;1255;48.716;9.124;2022-09-12T03:11:00;11.20;99.90
2489;DHT22;1255;48.716;9.124;2022-09-12T03:13:36;11.10;99.90
2489;DHT22;1255;48.716;9.124;2022-09-12T03:16:14;11.10;99.90
2489;DHT22;1255;48.716;9.124;2022-09-12T03:18:50;11.10;99.90
2489;DHT22;1255;48.716;9.124;2022-09-12T03:21:22;11.10;99.90
2489;DHT22;1255;48.716;9.124;2022-09-12T03:24:04;11.10;99.90
2489;DHT22;1255;48.716;9.124;2022-09-12T03:26:39;11.10;99.90
2489;DHT22;1255;48.716;9.124;2022-09-12T03:29:08;11.00;99.90
2489;DHT22;1255;48.716;9.124;2022-09-12T03:31:36;11.10;99.90
2489;DHT22;1255;48.716;9.124;2022-09-12T03:34:05;11.00;99.90
2489;DHT22;1255;48.716;9.124;2022-09-12T03:36:37;11.00;99.90
2489;DHT22;1255;48.716;9.124;2022-09-12T03:39:05;11.00;99.90
2489;DHT22;1255;48.716;9.124;2022-09-12T03:41:32;11.00;99.90
2489;DHT22;1255;48.716;9.124;2022-09-12T03:43:58;11.00;99.90
2489;DHT22;1255;48.716;9.124;2022-09-12T03:46:25;11.00;99.90
2489;DHT22;1255;48.716;9.124;2022-09-12T03:48:52;11.00;99.90
2489;DHT22;1255;48.716;9.124;2022-09-12T03:51:20;11.00;99.90
2489;DHT22;1255;48.716;9.124;2022-09-12T03:53:47;11.00;99.90
2489;DHT22;1255;48.716;9.124;2022-09-12T03:56:14;10.90;99.90
2489;DHT22;1255;48.716;9.124;2022-09-12T03:58:40;10.90;99.90
2489;DHT22;1255;48.716;9.124;2022-09-12T04:01:08;10.90;99.90
2489;DHT22;1255;48.716;9.124;2022-09-12T04:03:37;10.90;99.90
2489;DHT22;1255;48.716;9.124;2022-09-12T04:06:04;10.90;99.90
2489;DHT22;1255;48.716;9.124;2022-09-12T04:08:33;10.90;99.90
2489;DHT22;1255;48.716;9.124;2022-09-12T04:11:03;10.90;99.90
2489;DHT22;1255;48.716;9.124;2022-09-12T04:13:30;10.80;99.90
2489;DHT22;1255;48.716;9.124;2022-09-12T04:15:57;10.80;99.90
2489;DHT22;1255;48.716;9.124;2022-09-12T04:18:24;10.80;99.90
2489;DHT22;1255;48.716;9.124;2022-09-12T04:20:50;10.80;99.90
2489;DHT22;1255;48.716;9.124;2022-09-12T04:23:18;10.70;99.90
2489;DHT22;1255;48.716;9.124;2022-09-12T04:25:53;10.80;99.90
2489;DHT22;1255;48.716;9.124;2022-09-12T04:28:20;10.70;99.90
2489;DHT22;1255;48.716;9.124;2022-09-12T04:30:47;10.80;99.90
2489;DHT22;1255;48.716;9.124;2022-09-12T04:33:14;10.80;99.90
2489;DHT22;1255;48.716;9.124;2022-09-12T04:35:40;10.80;99.90
2489;DHT22;1255;48.716;9.124;2022-09-12T04:38:08;10.70;99.90
2489;DHT22;1255;48.716;9.124;2022-09-12T04:40:34;10.70;99.90
2489;DHT22;1255;48.716;9.124;2022-09-12T04:43:03;10.70;99.90
2489;DHT22;1255;48.716;9.124;2022-09-12T04:45:31;10.80;99.90
2489;DHT22;1255;48.716;9.124;2022-09-12T04:47:58;10.70;99.90
2489;DHT22;1255;48.716;9.124;2022-09-12T04:50:25;10.70;99.90
2489;DHT22;1255;48.716;9.124;2022-09-12T04:52:52;10.70;99.90
2489;DHT22;1255;48.716;9.124;2022-09-12T04:55:19;10.70;99.90
2489;DHT22;1255;48.716;9.124;2022-09-12T04:57:46;10.70;99.90
2489;DHT22;1255;48.716;9.124;2022-09-12T05:00:15;10.70;99.90
2489;DHT22;1255;48.716;9.124;2022-09-12T05:02:42;10.70;99.90
2489;DHT22;1255;48.716;9.124;2022-09-12T05:05:09;10.70;99.90
2489;DHT22;1255;48.716;9.124;2022-09-12T05:07:36;10.70;99.90
2489;DHT22;1255;48.716;9.124;2022-09-12T05:10:03;10.70;99.90
2489;DHT22;1255;48.716;9.124;2022-09-12T05:12:30;10.70;99.90
2489;DHT22;1255;48.716;9.124;2022-09-12T05:14:57;10.70;99.90
2489;DHT22;1255;48.716;9.124;2022-09-12T05:17:25;10.70;99.90
2489;DHT22;1255;48.716;9.124;2022-09-12T05:19:51;10.70;99.90
2489;DHT22;1255;48.716;9.124;2022-09-12T05:22:18;10.70;99.90
2489;DHT22;1255;48.716;9.124;2022-09-12T05:24:45;10.70;99.90
2489;DHT22;1255;48.716;9.124;2022-09-12T05:27:13;10.70;99.90
2489;DHT22;1255;48.716;9.124;2022-09-12T05:29:39;10.70;99.90
2489;DHT22;1255;48.716;9.124;2022-09-12T05:32:07;10.70;99.90
2489;DHT22;1255;48.716;9.124;2022-09-12T05:34:39;10.80;99.90
2489;DHT22;1255;48.716;9.124;2022-09-12T05:37:06;10.80;99.90
2489;DHT22;1255;48.716;9.124;2022-09-12T05:39:32;10.80;99.90
2489;DHT22;1255;48.716;9.124;2022-09-12T05:41:59;10.80;99.90
2489;DHT22;1255;48.716;9.124;2022-09-12T05:44:26;10.80;99.90
2489;DHT22;1255;48.716;9.124;2022-09-12T05:46:53;10.80;99.90
2489;DHT22;1255;48.716;9.124;2022-09-12T05:49:20;10.90;99.90
2489;DHT22;1255;48.716;9.124;2022-09-12T05:51:48;10.90;99.90
2489;DHT22;1255;48.716;9.124;2022-09-12T05:54:18;10.90;99.90
2489;DHT22;1255;48.716;9.124;2022-09-12T05:56:46;10.90;99.90
2489;DHT22;1255;48.716;9.124;2022-09-12T05:59:14;11.00;99.90
2489;DHT22;1255;48.716;9.124;2022-09-12T06:01:41;11.00;99.90
2489;DHT22;1255;48.716;9.124;2022-09-12T06:04:09;11.10;99.90
2489;DHT22;1255;48.716;9.124;2022-09-12T06:06:39;11.10;99.90
2489;DHT22;1255;48.716;9.124;2022-09-12T06:09:09;11.20;99.90
2489;DHT22;1255;48.716;9.124;2022-09-12T06:11:37;11.10;99.90
2489;DHT22;1255;48.716;9.124;2022-09-12T06:14:05;11.20;99.90
2489;DHT22;1255;48.716;9.124;2022-09-12T06:16:33;11.30;99.90
2489;DHT22;1255;48.716;9.124;2022-09-12T06:19:03;11.40;99.90
2489;DHT22;1255;48.716;9.124;2022-09-12T06:21:31;11.40;99.90
2489;DHT22;1255;48.716;9.124;2022-09-12T06:24:00;11.50;99.90
2489;DHT22;1255;48.716;9.124;2022-09-12T06:28:58;11.70;99.90
2489;DHT22;1255;48.716;9.124;2022-09-12T06:31:27;11.80;99.90
2489;DHT22;1255;48.716;9.124;2022-09-12T06:33:55;11.90;99.90
2489;DHT22;1255;48.716;9.124;2022-09-12T06:36:23;12.00;99.90
2489;DHT22;1255;48.716;9.124;2022-09-12T06:38:54;12.10;99.90
2489;DHT22;1255;48.716;9.124;2022-09-12T06:41:22;12.20;99.90
2489;DHT22;1255;48.716;9.124;2022-09-12T06:43:50;12.30;99.90
2489;DHT22;1255;48.716;9.124;2022-09-12T06:46:18;12.40;99.90
2489;DHT22;1255;48.716;9.124;2022-09-12T06:48:46;12.50;99.90
2489;DHT22;1255;48.716;9.124;2022-09-12T06:51:14;12.60;99.90
2489;DHT22;1255;48.716;9.124;2022-09-12T06:53:42;12.70;99.90
2489;DHT22;1255;48.716;9.124;2022-09-12T06:56:10;12.80;99.90
2489;DHT22;1255;48.716;9.124;2022-09-12T06:58:38;13.00;99.90
2489;DHT22;1255;48.716;9.124;2022-09-12T07:01:07;13.10;99.90
2489;DHT22;1255;48.716;9.124;2022-09-12T07:03:36;13.30;99.90
2489;DHT22;1255;48.716;9.124;2022-09-12T07:06:05;13.50;99.90
2489;DHT22;1255;48.716;9.124;2022-09-12T07:08:32;13.60;99.90
2489;DHT22;1255;48.716;9.124;2022-09-12T07:11:08;13.70;99.90
2489;DHT22;1255;48.716;9.124;2022-09-12T07:13:35;13.90;99.90
2489;DHT22;1255;48.716;9.124;2022-09-12T07:16:02;14.10;99.90
2489;DHT22;1255;48.716;9.124;2022-09-12T07:18:29;14.20;99.90
2489;DHT22;1255;48.716;9.124;2022-09-12T07:20:59;14.40;99.90
2489;DHT22;1255;48.716;9.124;2022-09-12T07:23:26;14.50;99.90
2489;DHT22;1255;48.716;9.124;2022-09-12T07:25:54;14.70;99.90
2489;DHT22;1255;48.716;9.124;2022-09-12T07:28:22;14.90;99.90
2489;DHT22;1255;48.716;9.124;2022-09-12T07:30:49;15.00;99.90
2489;DHT22;1255;48.716;9.124;2022-09-12T07:33:19;15.10;99.90
2489;DHT22;1255;48.716;9.124;2022-09-12T07:35:48;15.30;99.90
2489;DHT22;1255;48.716;9.124;2022-09-12T07:38:16;15.40;99.90
2489;DHT22;1255;48.716;9.124;2022-09-12T07:40:43;15.60;99.90
2489;DHT22;1255;48.716;9.124;2022-09-12T07:43:15;15.80;99.90
2489;DHT22;1255;48.716;9.124;2022-09-12T07:45:43;16.00;99.90
2489;DHT22;1255;48.716;9.124;2022-09-12T07:48:09;16.20;99.90
2489;DHT22;1255;48.716;9.124;2022-09-12T07:50:37;16.40;99.90
2489;DHT22;1255;48.716;9.124;2022-09-12T07:53:04;16.50;99.90
2489;DHT22;1255;48.716;9.124;2022-09-12T07:55:33;16.60;99.90
2489;DHT22;1255;48.716;9.124;2022-09-12T07:58:00;16.80;99.90
2489;DHT22;1255;48.716;9.124;2022-09-12T08:00:28;16.90;99.90
2489;DHT22;1255;48.716;9.124;2022-09-12T08:03:00;17.10;99.90
2489;DHT22;1255;48.716;9.124;2022-09-12T08:05:28;17.30;99.90
2489;DHT22;1255;48.716;9.124;2022-09-12T08:07:55;17.40;99.90
2489;DHT22;1255;48.716;9.124;2022-09-12T08:10:22;17.50;99.90
2489;DHT22;1255;48.716;9.124;2022-09-12T08:12:50;17.50;99.90
2489;DHT22;1255;48.716;9.124;2022-09-12T08:15:17;17.40;99.90
2489;DHT22;1255;48.716;9.124;2022-09-12T08:17:44;17.40;99.90
2489;DHT22;1255;48.716;9.124;2022-09-12T08:20:11;17.50;99.90
2489;DHT22;1255;48.716;9.124;2022-09-12T08:22:38;17.60;99.90
2489;DHT22;1255;48.716;9.124;2022-09-12T08:25:05;17.80;99.90
2489;DHT22;1255;48.716;9.124;2022-09-12T08:27:33;18.10;99.90
2489;DHT22;1255;48.716;9.124;2022-09-12T08:30:01;18.30;99.90
2489;DHT22;1255;48.716;9.124;2022-09-12T08:32:27;18.50;99.90
2489;DHT22;1255;48.716;9.124;2022-09-12T08:34:54;18.70;99.90
2489;DHT22;1255;48.716;9.124;2022-09-12T08:37:21;18.90;99.90
2489;DHT22;1255;48.716;9.124;2022-09-12T08:39:48;19.00;99.90
2489;DHT22;1255;48.716;9.124;2022-09-12T08:42:24;19.20;99.90
2489;DHT22;1255;48.716;9.124;2022-09-12T08:45:08;19.30;99.90
2489;DHT22;1255;48.716;9.124;2022-09-12T08:47:41;19.50;99.90
2489;DHT22;1255;48.716;9.124;2022-09-12T08:50:13;19.60;99.90
2489;DHT22;1255;48.716;9.124;2022-09-12T08:52:48;19.80;99.90
2489;DHT22;1255;48.716;9.124;2022-09-12T08:55:25;20.00;99.90
2489;DHT22;1255;48.716;9.124;2022-09-12T08:57:53;20.10;99.90
2489;DHT22;1255;48.716;9.124;2022-09-12T09:00:21;20.20;99.90
2489;DHT22;1255;48.716;9.124;2022-09-12T09:06:04;20.40;99.90
2489;DHT22;1255;48.716;9.124;2022-09-12T09:08:46;20.60;99.90
2489;DHT22;1255;48.716;9.124;2022-09-12T09:11:33;20.70;99.90
2489;DHT22;1255;48.716;9.124;2022-09-12T09:14:17;20.80;99.90
2489;DHT22;1255;48.716;9.124;2022-09-12T09:17:10;20.90;99.90
2489;DHT22;1255;48.716;9.124;2022-09-12T09:19:43;21.10;99.90
2489;DHT22;1255;48.716;9.124;2022-09-12T09:22:15;21.20;99.90
2489;DHT22;1255;48.716;9.124;2022-09-12T09:24:50;21.20;99.90
2489;DHT22;1255;48.716;9.124;2022-09-12T09:27:24;21.20;99.90
2489;DHT22;1255;48.716;9.124;2022-09-12T09:29:55;21.20;99.90
2489;DHT22;1255;48.716;9.124;2022-09-12T09:32:25;21.30;99.90
2489;DHT22;1255;48.716;9.124;2022-09-12T09:34:52;21.40;99.90
2489;DHT22;1255;48.716;9.124;2022-09-12T09:37:24;21.50;99.90
2489;DHT22;1255;48.716;9.124;2022-09-12T09:39:59;21.70;99.90
2489;DHT22;1255;48.716;9.124;2022-09-12T09:42:34;21.90;99.90
2489;DHT22;1255;48.716;9.124;2022-09-12T09:45:12;22.00;99.90
2489;DHT22;1255;48.716;9.124;2022-09-12T09:47:43;22.10;99.90
2489;DHT22;1255;48.716;9.124;2022-09-12T09:50:13;22.20;99.90
2489;DHT22;1255;48.716;9.124;2022-09-12T09:52:41;22.30;99.90
2489;DHT22;1255;48.716;9.124;2022-09-12T09:55:12;22.40;99.90
2489;DHT22;1255;48.716;9.124;2022-09-12T09:57:42;22.50;99.90
2489;DHT22;1255;48.716;9.124;2022-09-12T10:00:34;22.60;99.90
2489;DHT22;1255;48.716;9.124;2022-09-12T10:03:29;22.70;99.90
2489;DHT22;1255;48.716;9.124;2022-09-12T10:05:59;22.90;99.90
2489;DHT22;1255;48.716;9.124;2022-09-12T10:08:27;23.10;99.90
2489;DHT22;1255;48.716;9.124;2022-09-12T10:10:58;23.10;99.90
2489;DHT22;1255;48.716;9.124;2022-09-12T10:13:38;23.20;99.90
2489;DHT22;1255;48.716;9.124;2022-09-12T10:16:15;23.10;99.90
2489;DHT22;1255;48.716;9.124;2022-09-12T10:18:45;23.20;99.90
2489;DHT22;1255;48.716;9.124;2022-09-12T10:21:21;23.40;99.90
2489;DHT22;1255;48.716;9.124;2022-09-12T10:24:00;23.50;99.90
2489;DHT22;1255;48.716;9.124;2022-09-12T10:26:32;23.40;99.90
2489;DHT22;1255;48.716;9.124;2022-09-12T10:29:08;23.40;99.90
2489;DHT22;1255;48.716;9.124;2022-09-12T10:31:44;23.40;99.90
2489;DHT22;1255;48.716;9.124;2022-09-12T10:34:21;23.40;99.90
2489;DHT22;1255;48.716;9.124;2022-09-12T10:36:53;23.50;99.90
2489;DHT22;1255;48.716;9.124;2022-09-12T10:39:20;23.70;99.90
2489;DHT22;1255;48.716;9.124;2022-09-12T10:41:48;23.80;99.90
2489;DHT22;1255;48.716;9.124;2022-09-12T10:44:16;23.90;99.90
2489;DHT22;1255;48.716;9.124;2022-09-12T10:46:44;24.00;99.90
2489;DHT22;1255;48.716;9.124;2022-09-12T10:49:16;24.10;99.90
2489;DHT22;1255;48.716;9.124;2022-09-12T10:51:47;24.10;99.90
2489;DHT22;1255;48.716;9.124;2022-09-12T10:54:16;24.00;99.90
2489;DHT22;1255;48.716;9.124;2022-09-12T10:56:51;24.00;99.90
2489;DHT22;1255;48.716;9.124;2022-09-12T10:59:28;24.00;99.90
2489;DHT22;1255;48.716;9.124;2022-09-12T11:02:00;24.10;99.90
2489;DHT22;1255;48.716;9.124;2022-09-12T11:04:36;24.20;99.90
2489;DHT22;1255;48.716;9.124;2022-09-12T11:07:23;24.30;99.90
2489;DHT22;1255;48.716;9.124;2022-09-12T11:10:00;24.30;99.90
2489;DHT22;1255;48.716;9.124;2022-09-12T11:12:35;24.40;99.90
2489;DHT22;1255;48.716;9.124;2022-09-12T11:15:22;24.40;99.90
2489;DHT22;1255;48.716;9.124;2022-09-12T11:17:59;24.60;99.90
2489;DHT22;1255;48.716;9.124;2022-09-12T11:20:41;24.70;99.90
2489;DHT22;1255;48.716;9.124;2022-09-12T11:23:32;24.70;99.90
2489;DHT22;1255;48.716;9.124;2022-09-12T11:26:10;24.70;99.90
2489;DHT22;1255;48.716;9.124;2022-09-12T11:28:46;24.70;99.90
2489;DHT22;1255;48.716;9.124;2022-09-12T11:31:40;24.70;99.90
2489;DHT22;1255;48.716;9.124;2022-09-12T11:34:15;24.60;99.90
2489;DHT22;1255;48.716;9.124;2022-09-12T11:36:48;24.70;99.90
2489;DHT22;1255;48.716;9.124;2022-09-12T11:39:26;24.80;99.90
2489;DHT22;1255;48.716;9.124;2022-09-12T11:41:57;24.90;99.90
2489;DHT22;1255;48.716;9.124;2022-09-12T11:44:28;25.10;99.90
2489;DHT22;1255;48.716;9.124;2022-09-12T11:47:00;25.10;99.90
2489;DHT22;1255;48.716;9.124;2022-09-12T11:49:35;25.20;99.90
2489;DHT22;1255;48.716;9.124;2022-09-12T11:52:06;25.40;99.90
2489;DHT22;1255;48.716;9.124;2022-09-12T11:54:41;25.50;99.90
2489;DHT22;1255;48.716;9.124;2022-09-12T11:57:14;25.40;99.90
2489;DHT22;1255;48.716;9.124;2022-09-12T11:59:45;25.50;99.90
2489;DHT22;1255;48.716;9.124;2022-09-12T12:02:19;25.50;99.90
2489;DHT22;1255;48.716;9.124;2022-09-12T12:05:00;25.60;99.90
2489;DHT22;1255;48.716;9.124;2022-09-12T12:07:32;25.70;99.90
2489;DHT22;1255;48.716;9.124;2022-09-12T12:10:05;25.80;99.90
2489;DHT22;1255;48.716;9.124;2022-09-12T12:12:34;25.80;99.90
2489;DHT22;1255;48.716;9.124;2022-09-12T12:15:01;25.80;99.90
2489;DHT22;1255;48.716;9.124;2022-09-12T12:17:29;25.80;98.40
2489;DHT22;1255;48.716;9.124;2022-09-12T12:19:58;25.80;99.90
2489;DHT22;1255;48.716;9.124;2022-09-12T12:22:26;25.80;99.90
2489;DHT22;1255;48.716;9.124;2022-09-12T12:25:02;25.80;99.90
2489;DHT22;1255;48.716;9.124;2022-09-12T12:29:59;26.00;99.70
2489;DHT22;1255;48.716;9.124;2022-09-12T12:32:26;26.10;99.90
2489;DHT22;1255;48.716;9.124;2022-09-12T12:37:56;26.30;99.90
2489;DHT22;1255;48.716;9.124;2022-09-12T12:40:27;26.30;99.70
2489;DHT22;1255;48.716;9.124;2022-09-12T12:43:13;26.40;99.90
2489;DHT22;1255;48.716;9.124;2022-09-12T12:46:06;26.50;99.50
2489;DHT22;1255;48.716;9.124;2022-09-12T12:48:48;26.30;98.90
2489;DHT22;1255;48.716;9.124;2022-09-12T12:51:29;26.30;98.80
2489;DHT22;1255;48.716;9.124;2022-09-12T12:53:58;26.30;97.90
2489;DHT22;1255;48.716;9.124;2022-09-12T12:56:28;26.30;98.60
2489;DHT22;1255;48.716;9.124;2022-09-12T12:58:59;26.40;98.20
2489;DHT22;1255;48.716;9.124;2022-09-12T13:01:28;26.40;98.00
2489;DHT22;1255;48.716;9.124;2022-09-12T13:03:59;26.40;97.70
2489;DHT22;1255;48.716;9.124;2022-09-12T13:06:34;26.50;95.10
2489;DHT22;1255;48.716;9.124;2022-09-12T13:09:04;26.20;94.60
2489;DHT22;1255;48.716;9.124;2022-09-12T13:11:33;26.10;95.70
2489;DHT22;1255;48.716;9.124;2022-09-12T13:14:03;26.10;97.10
2489;DHT22;1255;48.716;9.124;2022-09-12T13:16:34;26.30;96.10
2489;DHT22;1255;48.716;9.124;2022-09-12T13:19:04;26.30;95.60
2489;DHT22;1255;48.716;9.124;2022-09-12T13:21:31;26.40;96.10
2489;DHT22;1255;48.716;9.124;2022-09-12T13:23:58;26.50;96.90
2489;DHT22;1255;48.716;9.124;2022-09-12T13:26:26;26.50;96.70
2489;DHT22;1255;48.716;9.124;2022-09-12T13:29:08;26.50;96.40
2489;DHT22;1255;48.716;9.124;2022-09-12T13:31:37;26.50;96.70
2489;DHT22;1255;48.716;9.124;2022-09-12T13:34:04;26.60;97.20
2489;DHT22;1255;48.716;9.124;2022-09-12T13:37:07;26.60;95.80
2489;DHT22;1255;48.716;9.124;2022-09-12T13:39:45;26.50;96.50
2489;DHT22;1255;48.716;9.124;2022-09-12T13:45:10;26.60;96.00
2489;DHT22;1255;48.716;9.124;2022-09-12T13:47:40;26.60;95.90
2489;DHT22;1255;48.716;9.124;2022-09-12T13:50:13;26.60;95.90
2489;DHT22;1255;48.716;9.124;2022-09-12T13:52:45;26.60;97.40
2489;DHT22;1255;48.716;9.124;2022-09-12T13:55:24;26.60;95.80
2489;DHT22;1255;48.716;9.124;2022-09-12T13:57:58;26.50;94.90
2489;DHT22;1255;48.716;9.124;2022-09-12T14:00:25;26.20;92.70
2489;DHT22;1255;48.716;9.124;2022-09-12T14:02:54;26.00;93.50
2489;DHT22;1255;48.716;9.124;2022-09-12T14:05:36;25.80;93.10
2489;DHT22;1255;48.716;9.124;2022-09-12T14:08:05;25.80;92.50
2489;DHT22;1255;48.716;9.124;2022-09-12T14:10:35;25.80;94.00
2489;DHT22;1255;48.716;9.124;2022-09-12T14:13:09;25.70;91.60
2489;DHT22;1255;48.716;9.124;2022-09-12T14:15:37;25.70;94.10
2489;DHT22;1255;48.716;9.124;2022-09-12T14:18:06;25.80;94.50
2489;DHT22;1255;48.716;9.124;2022-09-12T14:20:36;25.80;94.10
2489;DHT22;1255;48.716;9.124;2022-09-12T14:23:10;25.80;95.90
2489;DHT22;1255;48.716;9.124;2022-09-12T14:25:39;25.90;94.00
2489;DHT22;1255;48.716;9.124;2022-09-12T14:28:09;26.00;95.60
2489;DHT22;1255;48.716;9.124;2022-09-12T14:30:38;26.00;95.60
2489;DHT22;1255;48.716;9.124;2022-09-12T14:33:17;26.20;94.90
2489;DHT22;1255;48.716;9.124;2022-09-12T14:35:45;26.20;95.50
2489;DHT22;1255;48.716;9.124;2022-09-12T14:38:21;26.20;95.70
2489;DHT22;1255;48.716;9.124;2022-09-12T14:40:58;26.10;94.90
2489;DHT22;1255;48.716;9.124;2022-09-12T14:43:27;26.10;95.60
2489;DHT22;1255;48.716;9.124;2022-09-12T14:45:57;26.00;95.70
2489;DHT22;1255;48.716;9.124;2022-09-12T14:48:28;26.00;95.60
2489;DHT22;1255;48.716;9.124;2022-09-12T14:50:57;26.10;95.90
2489;DHT22;1255;48.716;9.124;2022-09-12T14:53:30;26.10;95.80
2489;DHT22;1255;48.716;9.124;2022-09-12T14:56:05;26.00;95.00
2489;DHT22;1255;48.716;9.124;2022-09-12T14:58:33;26.00;95.60
2489;DHT22;1255;48.716;9.124;2022-09-12T15:01:01;26.00;94.80
2489;DHT22;1255;48.716;9.124;2022-09-12T15:03:32;25.80;94.00
2489;DHT22;1255;48.716;9.124;2022-09-12T15:05:59;25.70;94.10
2489;DHT22;1255;48.716;9.124;2022-09-12T15:08:28;25.60;95.60
2489;DHT22;1255;48.716;9.124;2022-09-12T15:10:55;25.60;96.30
2489;DHT22;1255;48.716;9.124;2022-09-12T15:13:23;25.60;95.50
2489;DHT22;1255;48.716;9.124;2022-09-12T15:15:52;25.70;96.40
2489;DHT22;1255;48.716;9.124;2022-09-12T15:18:20;25.70;95.20
2489;DHT22;1255;48.716;9.124;2022-09-12T15:20:50;25.60;93.80
2489;DHT22;1255;48.716;9.124;2022-09-12T15:23:23;25.50;95.40
2489;DHT22;1255;48.716;9.124;2022-09-12T15:25:52;25.50;97.10
2489;DHT22;1255;48.716;9.124;2022-09-12T15:28:20;25.60;95.70
2489;DHT22;1255;48.716;9.124;2022-09-12T15:30:49;25.60;95.90
2489;DHT22;1255;48.716;9.124;2022-09-12T15:33:17;25.70;96.20
2489;DHT22;1255;48.716;9.124;2022-09-12T15:35:45;25.70;96.70
2489;DHT22;1255;48.716;9.124;2022-09-12T15:38:13;25.70;95.70
2489;DHT22;1255;48.716;9.124;2022-09-12T15:40:40;25.60;94.40
2489;DHT22;1255;48.716;9.124;2022-09-12T15:43:08;25.40;95.40
2489;DHT22;1255;48.716;9.124;2022-09-12T15:45:35;25.40;94.80
2489;DHT22;1255;48.716;9.124;2022-09-12T15:48:02;25.30;95.30
2489;DHT22;1255;48.716;9.124;2022-09-12T15:50:30;25.00;93.80
2489;DHT22;1255;48.716;9.124;2022-09-12T15:52:57;24.70;94.10
2489;DHT22;1255;48.716;9.124;2022-09-12T15:55:28;24.60;94.40
2489;DHT22;1255;48.716;9.124;2022-09-12T15:57:56;24.70;96.30
2489;DHT22;1255;48.716;9.124;2022-09-12T16:00:23;24.70;95.80
2489;DHT22;1255;48.716;9.124;2022-09-12T16:02:51;24.80;95.70
2489;DHT22;1255;48.716;9.124;2022-09-12T16:05:22;24.90;95.20
2489;DHT22;1255;48.716;9.124;2022-09-12T16:07:50;24.90;95.90
2489;DHT22;1255;48.716;9.124;2022-09-12T16:10:19;24.90;95.00
2489;DHT22;1255;48.716;9.124;2022-09-12T16:12:47;24.80;94.40
2489;DHT22;1255;48.716;9.124;2022-09-12T16:15:17;24.70;95.90
2489;DHT22;1255;48.716;9.124;2022-09-12T16:17:44;24.70;97.70
2489;DHT22;1255;48.716;9.124;2022-09-12T16:20:12;24.70;97.30
2489;DHT22;1255;48.716;9.124;2022-09-12T16:22:38;24.60;98.30
2489;DHT22;1255;48.716;9.124;2022-09-12T16:25:06;24.60;98.00
2489;DHT22;1255;48.716;9.124;2022-09-12T16:27:34;24.50;96.40
2489;DHT22;1255;48.716;9.124;2022-09-12T16:30:03;24.40;97.70
2489;DHT22;1255;48.716;9.124;2022-09-12T16:32:30;24.30;97.90
2489;DHT22;1255;48.716;9.124;2022-09-12T16:34:57;24.20;98.70
2489;DHT22;1255;48.716;9.124;2022-09-12T16:37:23;24.00;98.40
2489;DHT22;1255;48.716;9.124;2022-09-12T16:39:50;23.80;99.60
2489;DHT22;1255;48.716;9.124;2022-09-12T16:42:17;23.70;99.90